Terminal Aerodrome Forecast
Issued by NWS Twin Cities, MN

Home | Current Version | Previous Version | Text Only | Print | Product List | Glossary On
Versions: 1 2 3 4 5 6 7 8 9 10 11 12
000
FTUS43 KMPX 051130
TAFEAU
TAF
KEAU 051130Z 0512/0612 VRB03KT P6SM VCSH SCT100 BKN150
     FM051600 24007KT P6SM SCT060 BKN100
     FM052200 23006KT P6SM BKN120
     FM060200 20005KT P6SM SCT120=

USA.gov is the U.S. government's official web portal to all federal, state and local government web resources and services.